JBU1037 KFLL-KJFK
Flight info
| Callsign | JBU1037 |
|---|---|
| Flight time | 2h 19m |
| Altitude | 37000 |
| Route | FEALX2 ETECK ROWSY Y309 FLRDA SAGGY CHIEZ Q161 KALDA Q108 SIE CAMRN5 |
| Aircraft | A21N/M-SDE2E3FGHIRWXY/LB1 |
Departure
| Time | 2026-05-04 23:42 |
|---|---|
| Airport | Fort Lauderdale Hollywood International Airport (KFLL) |
Arrival
| Time | 2026-05-05 02:02 |
|---|---|
| Airport | John F. Kennedy International Airport (KJFK) |
| Time | Latitude | Longitude | Altitude | Speed | Heading |
|---|---|---|---|---|---|
| 2026-05-04 23:09 | 26.06933 | -80.14606 | 10 ft | 0 kts | 90° |
| 2026-05-04 23:30 | 26.06933 | -80.14618 | 10 ft | 2 kts | 90° |
| 2026-05-04 23:31 | 26.06933 | -80.14635 | 10 ft | 2 kts | 91° |
| 2026-05-04 23:31 | 26.06933 | -80.14652 | 10 ft | 2 kts | 90° |
| 2026-05-04 23:31 | 26.06933 | -80.14669 | 10 ft | 2 kts | 90° |
| 2026-05-04 23:31 | 26.06935 | -80.14686 | 10 ft | 2 kts | 114° |
| 2026-05-04 23:32 | 26.06943 | -80.14700 | 10 ft | 2 kts | 138° |
| 2026-05-04 23:32 | 26.06956 | -80.14709 | 10 ft | 2 kts | 163° |
| 2026-05-04 23:32 | 26.06971 | -80.14710 | 10 ft | 2 kts | 187° |
| 2026-05-04 23:32 | 26.06986 | -80.14705 | 10 ft | 2 kts | 212° |
| 2026-05-04 23:33 | 26.06994 | -80.14698 | 10 ft | 0 kts | 229° |
| 2026-05-04 23:33 | 26.06998 | -80.14692 | 10 ft | 0 kts | 232° |
| 2026-05-04 23:36 | 26.06994 | -80.14698 | 10 ft | 1 kts | 232° |
| 2026-05-04 23:37 | 26.06983 | -80.14714 | 10 ft | 3 kts | 232° |
| 2026-05-04 23:37 | 26.06961 | -80.14744 | 10 ft | 5 kts | 232° |
| 2026-05-04 23:37 | 26.06934 | -80.14783 | 10 ft | 3 kts | 231° |
| 2026-05-04 23:37 | 26.06915 | -80.14809 | 10 ft | 5 kts | 238° |
| 2026-05-04 23:38 | 26.06910 | -80.14864 | 10 ft | 9 kts | 270° |
| 2026-05-04 23:38 | 26.06910 | -80.14951 | 10 ft | 13 kts | 270° |
| 2026-05-04 23:38 | 26.06911 | -80.15056 | 10 ft | 13 kts | 270° |
| 2026-05-04 23:38 | 26.06868 | -80.15125 | 10 ft | 12 kts | 187° |
| 2026-05-04 23:39 | 26.06782 | -80.15130 | 10 ft | 12 kts | 181° |
| 2026-05-04 23:39 | 26.06702 | -80.15153 | 10 ft | 12 kts | 234° |
| 2026-05-04 23:39 | 26.06694 | -80.15245 | 10 ft | 12 kts | 270° |
| 2026-05-04 23:39 | 26.06694 | -80.15343 | 10 ft | 12 kts | 270° |
| 2026-05-04 23:40 | 26.06694 | -80.15441 | 10 ft | 12 kts | 270° |
| 2026-05-04 23:40 | 26.06694 | -80.15540 | 10 ft | 12 kts | 269° |
| 2026-05-04 23:40 | 26.06693 | -80.15643 | 10 ft | 13 kts | 269° |
| 2026-05-04 23:40 | 26.06693 | -80.15745 | 10 ft | 13 kts | 274° |
| 2026-05-04 23:41 | 26.06663 | -80.15819 | 10 ft | 10 kts | 198° |
| 2026-05-04 23:41 | 26.06597 | -80.15789 | 10 ft | 10 kts | 127° |
| 2026-05-04 23:41 | 26.06590 | -80.15710 | 10 ft | 10 kts | 89° |
| 2026-05-04 23:41 | 26.06589 | -80.15420 | 10 ft | 72 kts | 90° |
| 2026-05-04 23:42 | 26.06585 | -80.14625 | 13 ft | 133 kts | 90° |
| 2026-05-04 23:42 | 26.06589 | -80.13444 | 257 ft | 160 kts | 91° |
| 2026-05-04 23:42 | 26.06576 | -80.12221 | 850 ft | 161 kts | 92° |
| 2026-05-04 23:42 | 26.06557 | -80.10976 | 1508 ft | 161 kts | 92° |
| 2026-05-04 23:43 | 26.06536 | -80.09724 | 1974 ft | 170 kts | 90° |
| 2026-05-04 23:43 | 26.06551 | -80.08332 | 2179 ft | 192 kts | 87° |
| 2026-05-04 23:43 | 26.06600 | -80.06782 | 2523 ft | 208 kts | 86° |
| 2026-05-04 23:43 | 26.06650 | -80.05092 | 2873 ft | 226 kts | 87° |
| 2026-05-04 23:44 | 26.06689 | -80.03288 | 3230 ft | 244 kts | 87° |
| 2026-05-04 23:44 | 26.06873 | -80.01350 | 3646 ft | 258 kts | 73° |
| 2026-05-04 23:44 | 26.07646 | -79.99566 | 4286 ft | 262 kts | 54° |
| 2026-05-04 23:44 | 26.08788 | -79.97954 | 4994 ft | 266 kts | 50° |
| 2026-05-04 23:45 | 26.09979 | -79.96377 | 5648 ft | 272 kts | 49° |
| 2026-05-04 23:45 | 26.11207 | -79.94752 | 6344 ft | 276 kts | 49° |
| 2026-05-04 23:45 | 26.12444 | -79.93098 | 7056 ft | 280 kts | 49° |
| 2026-05-04 23:45 | 26.13685 | -79.91429 | 7745 ft | 284 kts | 49° |
| 2026-05-04 23:46 | 26.14957 | -79.89712 | 8413 ft | 290 kts | 49° |
| 2026-05-04 23:46 | 26.16199 | -79.87959 | 9062 ft | 295 kts | 52° |
| 2026-05-04 23:46 | 26.17423 | -79.86098 | 9714 ft | 299 kts | 53° |
| 2026-05-04 23:46 | 26.18635 | -79.84230 | 10287 ft | 306 kts | 53° |
| 2026-05-04 23:47 | 26.19913 | -79.82260 | 10617 ft | 321 kts | 53° |
| 2026-05-04 23:47 | 26.21272 | -79.80173 | 10906 ft | 338 kts | 53° |
| 2026-05-04 23:47 | 26.22681 | -79.78009 | 11184 ft | 353 kts | 52° |
| 2026-05-04 23:47 | 26.24164 | -79.75731 | 11556 ft | 365 kts | 52° |
| 2026-05-04 23:48 | 26.25665 | -79.73425 | 12116 ft | 370 kts | 52° |
| 2026-05-04 23:48 | 26.27190 | -79.71078 | 12695 ft | 375 kts | 52° |
| 2026-05-04 23:48 | 26.28746 | -79.68757 | 13263 ft | 378 kts | 49° |
| 2026-05-04 23:48 | 26.30474 | -79.66497 | 13836 ft | 381 kts | 45° |
| 2026-05-04 23:49 | 26.32288 | -79.64371 | 14385 ft | 384 kts | 43° |
| 2026-05-04 23:49 | 26.34157 | -79.62238 | 14964 ft | 386 kts | 43° |
| 2026-05-04 23:49 | 26.36048 | -79.60084 | 15615 ft | 386 kts | 42° |
| 2026-05-04 23:49 | 26.37926 | -79.57938 | 16156 ft | 389 kts | 42° |
| 2026-05-04 23:50 | 26.39817 | -79.55770 | 16653 ft | 393 kts | 42° |
| 2026-05-04 23:50 | 26.41733 | -79.53568 | 17144 ft | 397 kts | 42° |
| 2026-05-04 23:50 | 26.43642 | -79.51369 | 17628 ft | 400 kts | 42° |
| 2026-05-04 23:50 | 26.45570 | -79.49147 | 18102 ft | 403 kts | 42° |
| 2026-05-04 23:51 | 26.47554 | -79.46858 | 18574 ft | 406 kts | 42° |
| 2026-05-04 23:51 | 26.49542 | -79.44563 | 19041 ft | 409 kts | 42° |
| 2026-05-04 23:51 | 26.51531 | -79.42267 | 19503 ft | 411 kts | 42° |
| 2026-05-04 23:51 | 26.53544 | -79.39979 | 19959 ft | 413 kts | 39° |
| 2026-05-04 23:52 | 26.55726 | -79.37854 | 20393 ft | 413 kts | 33° |
| 2026-05-04 23:52 | 26.58056 | -79.36008 | 20824 ft | 412 kts | 27° |
| 2026-05-04 23:52 | 26.60531 | -79.34296 | 21243 ft | 414 kts | 26° |
| 2026-05-04 23:52 | 26.63009 | -79.32630 | 21637 ft | 416 kts | 26° |
| 2026-05-04 23:53 | 26.65518 | -79.30946 | 22026 ft | 419 kts | 26° |
| 2026-05-04 23:53 | 26.68006 | -79.29269 | 22408 ft | 421 kts | 26° |
| 2026-05-04 23:53 | 26.70543 | -79.27552 | 22779 ft | 423 kts | 26° |
| 2026-05-04 23:53 | 26.73097 | -79.25819 | 23130 ft | 426 kts | 26° |
| 2026-05-04 23:54 | 26.75612 | -79.24107 | 23480 ft | 428 kts | 26° |
| 2026-05-04 23:54 | 26.78175 | -79.22361 | 23839 ft | 430 kts | 26° |
| 2026-05-04 23:54 | 26.80491 | -79.20781 | 24142 ft | 433 kts | 26° |
| 2026-05-04 23:54 | 26.83139 | -79.18973 | 24477 ft | 435 kts | 26° |
| 2026-05-04 23:55 | 26.85712 | -79.17214 | 24801 ft | 437 kts | 26° |
| 2026-05-04 23:55 | 26.88339 | -79.15418 | 25123 ft | 439 kts | 26° |
| 2026-05-04 23:55 | 26.93618 | -79.11807 | 25735 ft | 444 kts | 25° |
| 2026-05-04 23:56 | 26.96251 | -79.10004 | 26035 ft | 446 kts | 25° |
| 2026-05-04 23:56 | 26.98920 | -79.08176 | 26322 ft | 448 kts | 25° |
| 2026-05-04 23:56 | 27.01576 | -79.06357 | 26601 ft | 450 kts | 25° |
| 2026-05-04 23:56 | 27.04258 | -79.04517 | 26891 ft | 452 kts | 25° |
| 2026-05-04 23:57 | 27.06921 | -79.02689 | 27163 ft | 453 kts | 25° |
| 2026-05-04 23:57 | 27.09624 | -79.00834 | 27423 ft | 456 kts | 25° |
| 2026-05-04 23:57 | 27.12330 | -78.98975 | 27677 ft | 458 kts | 25° |
| 2026-05-04 23:57 | 27.15051 | -78.97105 | 27944 ft | 459 kts | 25° |
| 2026-05-04 23:58 | 27.17768 | -78.95236 | 28207 ft | 461 kts | 25° |
| 2026-05-04 23:58 | 27.20521 | -78.93341 | 28458 ft | 463 kts | 25° |
| 2026-05-04 23:58 | 27.23277 | -78.91444 | 28704 ft | 465 kts | 24° |
| 2026-05-04 23:58 | 27.26046 | -78.89536 | 28944 ft | 467 kts | 24° |
| 2026-05-04 23:59 | 27.28861 | -78.87595 | 29181 ft | 469 kts | 24° |
| 2026-05-04 23:59 | 27.31616 | -78.85694 | 29428 ft | 471 kts | 24° |
| 2026-05-04 23:59 | 27.34413 | -78.83765 | 29676 ft | 472 kts | 24° |
| 2026-05-04 23:59 | 27.37306 | -78.81976 | 29907 ft | 468 kts | 18° |
| 2026-05-05 00:00 | 27.40273 | -78.80548 | 30129 ft | 463 kts | 12° |
| 2026-05-05 00:00 | 27.46430 | -78.78777 | 30568 ft | 453 kts | 360° |
| 2026-05-05 00:00 | 27.49502 | -78.78300 | 30811 ft | 452 kts | 358° |
| 2026-05-05 00:01 | 27.52651 | -78.77858 | 31021 ft | 452 kts | 358° |
| 2026-05-05 00:01 | 27.58872 | -78.76987 | 31031 ft | 452 kts | 358° |
| 2026-05-05 00:02 | 27.65118 | -78.76091 | 31034 ft | 452 kts | 358° |
| 2026-05-05 00:02 | 27.71331 | -78.75187 | 31038 ft | 452 kts | 358° |
| 2026-05-05 00:03 | 27.77543 | -78.74277 | 31039 ft | 452 kts | 358° |
| 2026-05-05 00:03 | 27.83791 | -78.73359 | 31040 ft | 452 kts | 358° |
| 2026-05-05 00:04 | 27.90048 | -78.72438 | 31040 ft | 452 kts | 358° |
| 2026-05-05 00:04 | 27.96272 | -78.71522 | 31041 ft | 452 kts | 358° |
| 2026-05-05 00:05 | 28.02554 | -78.70594 | 31040 ft | 451 kts | 358° |
| 2026-05-05 00:05 | 28.08818 | -78.69669 | 31040 ft | 451 kts | 358° |
| 2026-05-05 00:06 | 28.15013 | -78.68755 | 31040 ft | 451 kts | 358° |
| 2026-05-05 00:06 | 28.21264 | -78.67830 | 31041 ft | 451 kts | 358° |
| 2026-05-05 00:07 | 28.27475 | -78.66910 | 31043 ft | 451 kts | 358° |
| 2026-05-05 00:07 | 28.33705 | -78.65987 | 31046 ft | 452 kts | 358° |
| 2026-05-05 00:08 | 28.39958 | -78.65057 | 31049 ft | 451 kts | 358° |
| 2026-05-05 00:08 | 28.46178 | -78.64131 | 31050 ft | 451 kts | 358° |
| 2026-05-05 00:09 | 28.52285 | -78.63223 | 31050 ft | 451 kts | 358° |
| 2026-05-05 00:09 | 28.58491 | -78.62305 | 31045 ft | 453 kts | 359° |
| 2026-05-05 00:10 | 28.64821 | -78.61365 | 31404 ft | 458 kts | 360° |
| 2026-05-05 00:10 | 28.67965 | -78.60885 | 31742 ft | 457 kts | 360° |
| 2026-05-05 00:10 | 28.71131 | -78.60405 | 32043 ft | 456 kts | 359° |
| 2026-05-05 00:10 | 28.74283 | -78.59932 | 32308 ft | 457 kts | 359° |
| 2026-05-05 00:11 | 28.77442 | -78.59458 | 32567 ft | 457 kts | 359° |
| 2026-05-05 00:11 | 28.80609 | -78.58984 | 32824 ft | 458 kts | 359° |
| 2026-05-05 00:11 | 28.83759 | -78.58511 | 33085 ft | 458 kts | 359° |
| 2026-05-05 00:11 | 28.86900 | -78.58041 | 33342 ft | 458 kts | 359° |
| 2026-05-05 00:12 | 28.90100 | -78.57561 | 33605 ft | 458 kts | 359° |
| 2026-05-05 00:12 | 28.93241 | -78.57090 | 33879 ft | 458 kts | 359° |
| 2026-05-05 00:12 | 28.96425 | -78.56612 | 34140 ft | 458 kts | 359° |
| 2026-05-05 00:12 | 28.99577 | -78.56138 | 34397 ft | 458 kts | 359° |
| 2026-05-05 00:13 | 29.02706 | -78.55667 | 34656 ft | 457 kts | 359° |
| 2026-05-05 00:13 | 29.05851 | -78.55193 | 34916 ft | 457 kts | 359° |
| 2026-05-05 00:13 | 29.08983 | -78.54721 | 35168 ft | 456 kts | 359° |
| 2026-05-05 00:13 | 29.12113 | -78.54250 | 35390 ft | 457 kts | 359° |
| 2026-05-05 00:14 | 29.15292 | -78.53772 | 35579 ft | 457 kts | 359° |
| 2026-05-05 00:14 | 29.18481 | -78.53293 | 35754 ft | 458 kts | 359° |
| 2026-05-05 00:14 | 29.21648 | -78.52815 | 35926 ft | 459 kts | 359° |
| 2026-05-05 00:14 | 29.24822 | -78.52336 | 36094 ft | 460 kts | 359° |
| 2026-05-05 00:15 | 29.28015 | -78.51855 | 36259 ft | 461 kts | 359° |
| 2026-05-05 00:15 | 29.31185 | -78.51375 | 36411 ft | 461 kts | 359° |
| 2026-05-05 00:15 | 29.34381 | -78.50891 | 36576 ft | 462 kts | 359° |
| 2026-05-05 00:15 | 29.37595 | -78.50404 | 36716 ft | 463 kts | 359° |
| 2026-05-05 00:16 | 29.40791 | -78.49921 | 36834 ft | 464 kts | 359° |
| 2026-05-05 00:16 | 29.43993 | -78.49434 | 36955 ft | 465 kts | 359° |
| 2026-05-05 00:16 | 29.47203 | -78.48947 | 37045 ft | 466 kts | 359° |
| 2026-05-05 00:17 | 29.53621 | -78.47884 | 37064 ft | 468 kts | 0° |
| 2026-05-05 00:17 | 29.60029 | -78.46736 | 37075 ft | 468 kts | 0° |
| 2026-05-05 00:18 | 29.66513 | -78.45578 | 37080 ft | 468 kts | 0° |
| 2026-05-05 00:18 | 29.72967 | -78.44430 | 37081 ft | 468 kts | 0° |
| 2026-05-05 00:19 | 29.79389 | -78.43291 | 37080 ft | 468 kts | 0° |
| 2026-05-05 00:19 | 29.85889 | -78.42136 | 37081 ft | 469 kts | 0° |
| 2026-05-05 00:20 | 29.92348 | -78.40986 | 37081 ft | 469 kts | 0° |
| 2026-05-05 00:20 | 29.98802 | -78.39835 | 37083 ft | 469 kts | 0° |
| 2026-05-05 00:21 | 30.05279 | -78.38680 | 37085 ft | 469 kts | 0° |
| 2026-05-05 00:21 | 30.11737 | -78.37525 | 37088 ft | 469 kts | 0° |
| 2026-05-05 00:22 | 30.18208 | -78.36369 | 37091 ft | 469 kts | 0° |
| 2026-05-05 00:22 | 30.24637 | -78.35216 | 37092 ft | 469 kts | 0° |
| 2026-05-05 00:23 | 30.31100 | -78.34057 | 37091 ft | 470 kts | 1° |
| 2026-05-05 00:23 | 30.37583 | -78.32893 | 37092 ft | 470 kts | 1° |
| 2026-05-05 00:24 | 30.44039 | -78.31731 | 37092 ft | 470 kts | 1° |
| 2026-05-05 00:24 | 30.50505 | -78.30566 | 37092 ft | 470 kts | 1° |
| 2026-05-05 00:25 | 30.56988 | -78.29396 | 37092 ft | 470 kts | 0° |
| 2026-05-05 00:25 | 30.63459 | -78.28226 | 37094 ft | 470 kts | 0° |
| 2026-05-05 00:26 | 30.69950 | -78.27053 | 37099 ft | 470 kts | 0° |
| 2026-05-05 00:26 | 30.76386 | -78.25886 | 37104 ft | 469 kts | 0° |
| 2026-05-05 00:27 | 30.82808 | -78.24721 | 37108 ft | 469 kts | 0° |
| 2026-05-05 00:27 | 30.89272 | -78.23548 | 37109 ft | 469 kts | 0° |
| 2026-05-05 00:28 | 30.95727 | -78.22337 | 37110 ft | 472 kts | 2° |
| 2026-05-05 00:28 | 31.02174 | -78.20897 | 37110 ft | 474 kts | 2° |
| 2026-05-05 00:29 | 31.08598 | -78.19441 | 37110 ft | 474 kts | 2° |
| 2026-05-05 00:29 | 31.15050 | -78.17995 | 37109 ft | 474 kts | 2° |
| 2026-05-05 00:30 | 31.21533 | -78.16549 | 37110 ft | 474 kts | 2° |
| 2026-05-05 00:30 | 31.27993 | -78.15107 | 37109 ft | 475 kts | 2° |
| 2026-05-05 00:31 | 31.34469 | -78.13660 | 37110 ft | 475 kts | 2° |
| 2026-05-05 00:31 | 31.41004 | -78.12194 | 37110 ft | 476 kts | 2° |
| 2026-05-05 00:32 | 31.47555 | -78.10951 | 37085 ft | 472 kts | 359° |
| 2026-05-05 00:32 | 31.54048 | -78.09855 | 37049 ft | 472 kts | 359° |
| 2026-05-05 00:33 | 31.60608 | -78.08746 | 37031 ft | 473 kts | 359° |
| 2026-05-05 00:33 | 31.67116 | -78.07636 | 37024 ft | 474 kts | 359° |
| 2026-05-05 00:34 | 31.73649 | -78.06516 | 37021 ft | 474 kts | 359° |
| 2026-05-05 00:34 | 31.80220 | -78.05387 | 37020 ft | 475 kts | 359° |
| 2026-05-05 00:35 | 31.86751 | -78.04263 | 37020 ft | 475 kts | 359° |
| 2026-05-05 00:35 | 31.93344 | -78.03129 | 37020 ft | 475 kts | 359° |
| 2026-05-05 00:36 | 31.99870 | -78.02003 | 37020 ft | 475 kts | 359° |
| 2026-05-05 00:36 | 32.06459 | -78.00866 | 37020 ft | 475 kts | 359° |
| 2026-05-05 00:37 | 32.13001 | -77.99734 | 37019 ft | 475 kts | 359° |
| 2026-05-05 00:37 | 32.19499 | -77.98609 | 37020 ft | 475 kts | 359° |
| 2026-05-05 00:38 | 32.26019 | -77.97479 | 37020 ft | 475 kts | 359° |
| 2026-05-05 00:38 | 32.32533 | -77.96347 | 37020 ft | 475 kts | 359° |
| 2026-05-05 00:39 | 32.39093 | -77.95207 | 37020 ft | 474 kts | 359° |
| 2026-05-05 00:39 | 32.45603 | -77.94072 | 37020 ft | 475 kts | 359° |
| 2026-05-05 00:40 | 32.52091 | -77.92941 | 37056 ft | 474 kts | 359° |
| 2026-05-05 00:40 | 32.58575 | -77.91807 | 37088 ft | 473 kts | 359° |
| 2026-05-05 00:41 | 32.65062 | -77.90673 | 37102 ft | 472 kts | 359° |
| 2026-05-05 00:41 | 32.71555 | -77.89536 | 37108 ft | 472 kts | 360° |
| 2026-05-05 00:42 | 32.78016 | -77.88403 | 37110 ft | 472 kts | 360° |
| 2026-05-05 00:42 | 32.84493 | -77.87264 | 37110 ft | 471 kts | 360° |
| 2026-05-05 00:43 | 32.90967 | -77.86124 | 37110 ft | 470 kts | 0° |
| 2026-05-05 00:43 | 32.97411 | -77.84989 | 37110 ft | 470 kts | 0° |
| 2026-05-05 00:44 | 33.03838 | -77.83854 | 37111 ft | 468 kts | 0° |
| 2026-05-05 00:44 | 33.10260 | -77.82719 | 37113 ft | 468 kts | 0° |
| 2026-05-05 00:45 | 33.16780 | -77.81564 | 37116 ft | 467 kts | 1° |
| 2026-05-05 00:45 | 33.23148 | -77.80435 | 37119 ft | 466 kts | 1° |
| 2026-05-05 00:46 | 33.29525 | -77.79301 | 37119 ft | 465 kts | 1° |
| 2026-05-05 00:46 | 33.35907 | -77.78167 | 37119 ft | 464 kts | 1° |
| 2026-05-05 00:47 | 33.42308 | -77.77026 | 37119 ft | 464 kts | 1° |
| 2026-05-05 00:47 | 33.48649 | -77.75895 | 37119 ft | 463 kts | 1° |
| 2026-05-05 00:48 | 33.54986 | -77.74763 | 37118 ft | 462 kts | 1° |
| 2026-05-05 00:48 | 33.61350 | -77.73624 | 37115 ft | 462 kts | 1° |
| 2026-05-05 00:49 | 33.67704 | -77.72485 | 37113 ft | 461 kts | 1° |
| 2026-05-05 00:49 | 33.74078 | -77.71180 | 37112 ft | 463 kts | 4° |
| 2026-05-05 00:50 | 33.80403 | -77.69777 | 37111 ft | 463 kts | 4° |
| 2026-05-05 00:50 | 33.86718 | -77.68385 | 37111 ft | 463 kts | 4° |
| 2026-05-05 00:51 | 33.93071 | -77.66993 | 37111 ft | 463 kts | 4° |
| 2026-05-05 00:51 | 33.99383 | -77.65612 | 37111 ft | 463 kts | 4° |
| 2026-05-05 00:52 | 34.05737 | -77.64222 | 37111 ft | 461 kts | 4° |
| 2026-05-05 00:52 | 34.12032 | -77.62839 | 37112 ft | 461 kts | 4° |
| 2026-05-05 00:53 | 34.18347 | -77.61452 | 37111 ft | 461 kts | 4° |
| 2026-05-05 00:53 | 34.24604 | -77.60076 | 37111 ft | 461 kts | 4° |
| 2026-05-05 00:54 | 34.30921 | -77.58684 | 37111 ft | 461 kts | 4° |
| 2026-05-05 00:54 | 34.37243 | -77.57288 | 37111 ft | 461 kts | 4° |
| 2026-05-05 00:55 | 34.43538 | -77.55897 | 37111 ft | 461 kts | 3° |
| 2026-05-05 00:55 | 34.49766 | -77.54181 | 37111 ft | 466 kts | 9° |
| 2026-05-05 00:56 | 34.55918 | -77.51547 | 37112 ft | 472 kts | 17° |
| 2026-05-05 00:56 | 34.61895 | -77.48109 | 37112 ft | 474 kts | 20° |
| 2026-05-05 00:57 | 34.67780 | -77.44547 | 37111 ft | 474 kts | 20° |
| 2026-05-05 00:57 | 34.73691 | -77.40980 | 37111 ft | 474 kts | 20° |
| 2026-05-05 00:58 | 34.79594 | -77.37427 | 37110 ft | 474 kts | 20° |
| 2026-05-05 00:58 | 34.85525 | -77.33856 | 37103 ft | 474 kts | 20° |
| 2026-05-05 00:59 | 34.91431 | -77.30296 | 37100 ft | 474 kts | 20° |
| 2026-05-05 00:59 | 34.97353 | -77.26721 | 37096 ft | 474 kts | 20° |
| 2026-05-05 01:00 | 35.03247 | -77.23158 | 37095 ft | 474 kts | 20° |
| 2026-05-05 01:00 | 35.09195 | -77.19554 | 37094 ft | 474 kts | 20° |
| 2026-05-05 01:01 | 35.15096 | -77.15975 | 37094 ft | 475 kts | 20° |
| 2026-05-05 01:01 | 35.20964 | -77.12409 | 37094 ft | 474 kts | 20° |
| 2026-05-05 01:02 | 35.26902 | -77.08795 | 37094 ft | 474 kts | 20° |
| 2026-05-05 01:02 | 35.32784 | -77.05210 | 37094 ft | 474 kts | 20° |
| 2026-05-05 01:03 | 35.38666 | -77.01619 | 37094 ft | 474 kts | 20° |
| 2026-05-05 01:03 | 35.44577 | -76.98003 | 37091 ft | 474 kts | 20° |
| 2026-05-05 01:04 | 35.50470 | -76.94392 | 37088 ft | 474 kts | 20° |
| 2026-05-05 01:04 | 35.59283 | -76.88986 | 37081 ft | 473 kts | 20° |
| 2026-05-05 01:05 | 35.65147 | -76.85425 | 37082 ft | 473 kts | 20° |
| 2026-05-05 01:05 | 35.71077 | -76.81824 | 37084 ft | 473 kts | 20° |
| 2026-05-05 01:06 | 35.76967 | -76.78236 | 37088 ft | 473 kts | 20° |
| 2026-05-05 01:06 | 35.82818 | -76.74664 | 37091 ft | 472 kts | 20° |
| 2026-05-05 01:07 | 35.88720 | -76.71056 | 37091 ft | 472 kts | 20° |
| 2026-05-05 01:07 | 35.94546 | -76.67280 | 37085 ft | 475 kts | 22° |
| 2026-05-05 01:08 | 36.00307 | -76.63387 | 37076 ft | 475 kts | 22° |
| 2026-05-05 01:08 | 36.06091 | -76.59472 | 37066 ft | 472 kts | 22° |
| 2026-05-05 01:09 | 36.11827 | -76.55588 | 37060 ft | 472 kts | 22° |
| 2026-05-05 01:09 | 36.17593 | -76.51681 | 37058 ft | 472 kts | 22° |
| 2026-05-05 01:10 | 36.23341 | -76.47783 | 37057 ft | 472 kts | 22° |
| 2026-05-05 01:10 | 36.29107 | -76.43864 | 37057 ft | 472 kts | 22° |
| 2026-05-05 01:11 | 36.34857 | -76.39951 | 37057 ft | 473 kts | 22° |
| 2026-05-05 01:11 | 36.40596 | -76.36038 | 37057 ft | 472 kts | 22° |
| 2026-05-05 01:12 | 36.46354 | -76.32106 | 37056 ft | 473 kts | 23° |
| 2026-05-05 01:12 | 36.52109 | -76.28168 | 37056 ft | 473 kts | 23° |
| 2026-05-05 01:13 | 36.57838 | -76.24242 | 37051 ft | 472 kts | 23° |
| 2026-05-05 01:13 | 36.63583 | -76.20297 | 37040 ft | 471 kts | 23° |
| 2026-05-05 01:14 | 36.69313 | -76.16356 | 37030 ft | 471 kts | 23° |
| 2026-05-05 01:14 | 36.74997 | -76.12442 | 37024 ft | 471 kts | 23° |
| 2026-05-05 01:15 | 36.80740 | -76.08479 | 37021 ft | 471 kts | 23° |
| 2026-05-05 01:15 | 36.86453 | -76.04530 | 37020 ft | 470 kts | 23° |
| 2026-05-05 01:16 | 36.92174 | -76.00568 | 37020 ft | 470 kts | 24° |
| 2026-05-05 01:16 | 36.97889 | -75.96602 | 37019 ft | 472 kts | 24° |
| 2026-05-05 01:17 | 37.03620 | -75.92626 | 37020 ft | 471 kts | 23° |
| 2026-05-05 01:17 | 37.09466 | -75.89165 | 37025 ft | 465 kts | 16° |
| 2026-05-05 01:18 | 37.15655 | -75.86560 | 37028 ft | 460 kts | 10° |
| 2026-05-05 01:18 | 37.21787 | -75.84449 | 37026 ft | 460 kts | 9° |
| 2026-05-05 01:19 | 37.27973 | -75.82330 | 37020 ft | 460 kts | 10° |
| 2026-05-05 01:19 | 37.34105 | -75.80207 | 37015 ft | 460 kts | 10° |
| 2026-05-05 01:20 | 37.40261 | -75.78065 | 37012 ft | 459 kts | 10° |
| 2026-05-05 01:20 | 37.46396 | -75.75925 | 37010 ft | 459 kts | 10° |
| 2026-05-05 01:21 | 37.52559 | -75.73772 | 37009 ft | 459 kts | 10° |
| 2026-05-05 01:21 | 37.58722 | -75.71615 | 37009 ft | 459 kts | 11° |
| 2026-05-05 01:22 | 37.64881 | -75.69455 | 37009 ft | 459 kts | 11° |
| 2026-05-05 01:22 | 37.70986 | -75.67310 | 37009 ft | 459 kts | 11° |
| 2026-05-05 01:23 | 37.77133 | -75.65106 | 37009 ft | 460 kts | 13° |
| 2026-05-05 01:23 | 37.83118 | -75.62258 | 37009 ft | 464 kts | 20° |
| 2026-05-05 01:24 | 37.88853 | -75.58491 | 37009 ft | 468 kts | 27° |
| 2026-05-05 01:24 | 37.94172 | -75.54041 | 37009 ft | 471 kts | 30° |
| 2026-05-05 01:25 | 37.99622 | -75.49236 | 37009 ft | 471 kts | 30° |
| 2026-05-05 01:25 | 38.04985 | -75.44543 | 37009 ft | 469 kts | 30° |
| 2026-05-05 01:26 | 38.10475 | -75.40005 | 37009 ft | 467 kts | 28° |
| 2026-05-05 01:26 | 38.15931 | -75.35607 | 37010 ft | 467 kts | 28° |
| 2026-05-05 01:27 | 38.21539 | -75.31467 | 37008 ft | 464 kts | 22° |
| 2026-05-05 01:27 | 38.27437 | -75.28355 | 37009 ft | 459 kts | 14° |
| 2026-05-05 01:28 | 38.33633 | -75.26303 | 37006 ft | 454 kts | 6° |
| 2026-05-05 01:28 | 38.39852 | -75.24995 | 36998 ft | 452 kts | 4° |
| 2026-05-05 01:29 | 38.46032 | -75.23736 | 36990 ft | 452 kts | 5° |
| 2026-05-05 01:29 | 38.52224 | -75.22440 | 36986 ft | 452 kts | 5° |
| 2026-05-05 01:30 | 38.58460 | -75.21130 | 36983 ft | 452 kts | 5° |
| 2026-05-05 01:30 | 38.64600 | -75.19585 | 36983 ft | 456 kts | 11° |
| 2026-05-05 01:31 | 38.70575 | -75.16855 | 36983 ft | 461 kts | 20° |
| 2026-05-05 01:31 | 38.76172 | -75.12865 | 36983 ft | 466 kts | 30° |
| 2026-05-05 01:32 | 38.81397 | -75.07883 | 36983 ft | 468 kts | 34° |
| 2026-05-05 01:32 | 38.86510 | -75.02801 | 36985 ft | 467 kts | 34° |
| 2026-05-05 01:33 | 38.91668 | -74.97701 | 36989 ft | 467 kts | 33° |
| 2026-05-05 01:33 | 38.96814 | -74.92626 | 36990 ft | 466 kts | 33° |
| 2026-05-05 01:34 | 39.01922 | -74.87585 | 36989 ft | 466 kts | 33° |
| 2026-05-05 01:34 | 39.07043 | -74.82518 | 36987 ft | 465 kts | 33° |
| 2026-05-05 01:35 | 39.12113 | -74.77305 | 36985 ft | 466 kts | 36° |
| 2026-05-05 01:35 | 39.17046 | -74.71973 | 36983 ft | 465 kts | 36° |
| 2026-05-05 01:36 | 39.22004 | -74.66596 | 36983 ft | 465 kts | 36° |
| 2026-05-05 01:36 | 39.26941 | -74.61244 | 36808 ft | 464 kts | 36° |
| 2026-05-05 01:37 | 39.29387 | -74.58591 | 36455 ft | 461 kts | 36° |
| 2026-05-05 01:37 | 39.31848 | -74.55918 | 35994 ft | 457 kts | 36° |
| 2026-05-05 01:37 | 39.34240 | -74.53318 | 35444 ft | 455 kts | 36° |
| 2026-05-05 01:37 | 39.36664 | -74.50682 | 34884 ft | 453 kts | 36° |
| 2026-05-05 01:38 | 39.39072 | -74.48060 | 34326 ft | 451 kts | 36° |
| 2026-05-05 01:38 | 39.41451 | -74.45467 | 33777 ft | 448 kts | 36° |
| 2026-05-05 01:38 | 39.43807 | -74.42897 | 33229 ft | 445 kts | 36° |
| 2026-05-05 01:38 | 39.46153 | -74.40337 | 32642 ft | 444 kts | 36° |
| 2026-05-05 01:39 | 39.48528 | -74.37744 | 32009 ft | 444 kts | 36° |
| 2026-05-05 01:39 | 39.50870 | -74.35184 | 31372 ft | 444 kts | 36° |
| 2026-05-05 01:39 | 39.53223 | -74.32608 | 30707 ft | 444 kts | 37° |
| 2026-05-05 01:39 | 39.55568 | -74.30039 | 30057 ft | 443 kts | 37° |
| 2026-05-05 01:40 | 39.57889 | -74.27491 | 29627 ft | 438 kts | 37° |
| 2026-05-05 01:40 | 39.60216 | -74.24934 | 29163 ft | 433 kts | 37° |
| 2026-05-05 01:40 | 39.62482 | -74.22444 | 28681 ft | 430 kts | 37° |
| 2026-05-05 01:40 | 39.64742 | -74.19958 | 28179 ft | 427 kts | 36° |
| 2026-05-05 01:41 | 39.67012 | -74.17460 | 27663 ft | 424 kts | 36° |
| 2026-05-05 01:41 | 39.69262 | -74.14983 | 27143 ft | 421 kts | 36° |
| 2026-05-05 01:41 | 39.71470 | -74.12547 | 26631 ft | 419 kts | 36° |
| 2026-05-05 01:41 | 39.73692 | -74.10101 | 26108 ft | 417 kts | 36° |
| 2026-05-05 01:42 | 39.75874 | -74.07691 | 25595 ft | 415 kts | 36° |
| 2026-05-05 01:42 | 39.78061 | -74.05270 | 25076 ft | 413 kts | 36° |
| 2026-05-05 01:42 | 39.80254 | -74.02846 | 24551 ft | 412 kts | 36° |
| 2026-05-05 01:42 | 39.82436 | -74.00491 | 24036 ft | 409 kts | 33° |
| 2026-05-05 01:43 | 39.84709 | -73.98348 | 23531 ft | 404 kts | 29° |
| 2026-05-05 01:43 | 39.87086 | -73.96455 | 23035 ft | 400 kts | 25° |
| 2026-05-05 01:43 | 39.89535 | -73.94704 | 22549 ft | 397 kts | 23° |
| 2026-05-05 01:43 | 39.91991 | -73.92984 | 22068 ft | 394 kts | 24° |
| 2026-05-05 01:44 | 39.94394 | -73.91302 | 21589 ft | 392 kts | 24° |
| 2026-05-05 01:44 | 39.96768 | -73.89626 | 21123 ft | 389 kts | 24° |
| 2026-05-05 01:44 | 39.99149 | -73.87941 | 20652 ft | 387 kts | 24° |
| 2026-05-05 01:44 | 40.01452 | -73.86186 | 20192 ft | 387 kts | 27° |
| 2026-05-05 01:45 | 40.03754 | -73.84344 | 19733 ft | 384 kts | 27° |
| 2026-05-05 01:45 | 40.06014 | -73.82521 | 19209 ft | 382 kts | 27° |
| 2026-05-05 01:45 | 40.08283 | -73.80695 | 18704 ft | 380 kts | 27° |
| 2026-05-05 01:45 | 40.10516 | -73.78895 | 18223 ft | 377 kts | 27° |
| 2026-05-05 01:46 | 40.12743 | -73.77100 | 17719 ft | 375 kts | 27° |
| 2026-05-05 01:46 | 40.14948 | -73.75322 | 17220 ft | 373 kts | 27° |
| 2026-05-05 01:46 | 40.17127 | -73.73564 | 16740 ft | 370 kts | 27° |
| 2026-05-05 01:46 | 40.19322 | -73.71791 | 16278 ft | 367 kts | 27° |
| 2026-05-05 01:47 | 40.21476 | -73.70049 | 15822 ft | 364 kts | 27° |
| 2026-05-05 01:47 | 40.23615 | -73.68314 | 15310 ft | 362 kts | 27° |
| 2026-05-05 01:47 | 40.25755 | -73.66579 | 14848 ft | 359 kts | 27° |
| 2026-05-05 01:47 | 40.27856 | -73.64874 | 14384 ft | 357 kts | 27° |
| 2026-05-05 01:48 | 40.29946 | -73.63175 | 13909 ft | 355 kts | 27° |
| 2026-05-05 01:48 | 40.32019 | -73.61487 | 13452 ft | 352 kts | 27° |
| 2026-05-05 01:48 | 40.34113 | -73.59784 | 12959 ft | 350 kts | 27° |
| 2026-05-05 01:48 | 40.36158 | -73.58127 | 12510 ft | 347 kts | 27° |
| 2026-05-05 01:49 | 40.38193 | -73.56473 | 12046 ft | 345 kts | 26° |
| 2026-05-05 01:49 | 40.40232 | -73.54813 | 11596 ft | 342 kts | 27° |
| 2026-05-05 01:49 | 40.42300 | -73.53361 | 11081 ft | 336 kts | 13° |
| 2026-05-05 01:49 | 40.44554 | -73.52917 | 10584 ft | 324 kts | 353° |
| 2026-05-05 01:50 | 40.46755 | -73.53180 | 10126 ft | 319 kts | 348° |
| 2026-05-05 01:50 | 40.48957 | -73.53584 | 9820 ft | 311 kts | 347° |
| 2026-05-05 01:50 | 40.51039 | -73.53982 | 9623 ft | 301 kts | 346° |
| 2026-05-05 01:50 | 40.53082 | -73.54369 | 9450 ft | 290 kts | 347° |
| 2026-05-05 01:51 | 40.55036 | -73.54733 | 9240 ft | 282 kts | 347° |
| 2026-05-05 01:51 | 40.56961 | -73.55039 | 8895 ft | 281 kts | 354° |
| 2026-05-05 01:51 | 40.58926 | -73.54797 | 8469 ft | 286 kts | 5° |
| 2026-05-05 01:51 | 40.60900 | -73.54303 | 8068 ft | 286 kts | 6° |
| 2026-05-05 01:52 | 40.62844 | -73.53782 | 7669 ft | 285 kts | 6° |
| 2026-05-05 01:52 | 40.64731 | -73.53276 | 7290 ft | 284 kts | 6° |
| 2026-05-05 01:52 | 40.66657 | -73.52757 | 6882 ft | 284 kts | 7° |
| 2026-05-05 01:52 | 40.68562 | -73.52248 | 6640 ft | 273 kts | 6° |
| 2026-05-05 01:53 | 40.70377 | -73.51755 | 6208 ft | 266 kts | 7° |
| 2026-05-05 01:53 | 40.72186 | -73.51271 | 5575 ft | 266 kts | 7° |
| 2026-05-05 01:53 | 40.73964 | -73.50800 | 5268 ft | 252 kts | 6° |
| 2026-05-05 01:53 | 40.75641 | -73.50356 | 4974 ft | 242 kts | 7° |
| 2026-05-05 01:54 | 40.77280 | -73.49921 | 4676 ft | 240 kts | 6° |
| 2026-05-05 01:54 | 40.78899 | -73.49498 | 4391 ft | 238 kts | 7° |
| 2026-05-05 01:54 | 40.80532 | -73.49126 | 4060 ft | 236 kts | 358° |
| 2026-05-05 01:54 | 40.82048 | -73.49615 | 3689 ft | 221 kts | 316° |
| 2026-05-05 01:55 | 40.82864 | -73.51185 | 3452 ft | 206 kts | 278° |
| 2026-05-05 01:55 | 40.82911 | -73.53017 | 3288 ft | 196 kts | 253° |
| 2026-05-05 01:55 | 40.82450 | -73.54685 | 3007 ft | 196 kts | 243° |
| 2026-05-05 01:55 | 40.81902 | -73.56349 | 2982 ft | 198 kts | 245° |
| 2026-05-05 01:56 | 40.81375 | -73.58025 | 2980 ft | 199 kts | 245° |
| 2026-05-05 01:56 | 40.80860 | -73.59720 | 2993 ft | 199 kts | 246° |
| 2026-05-05 01:56 | 40.80356 | -73.61421 | 2910 ft | 195 kts | 246° |
| 2026-05-05 01:56 | 40.79808 | -73.63032 | 2563 ft | 195 kts | 230° |
| 2026-05-05 01:57 | 40.78828 | -73.64236 | 2322 ft | 187 kts | 215° |
| 2026-05-05 01:57 | 40.77766 | -73.65147 | 2310 ft | 174 kts | 212° |
| 2026-05-05 01:57 | 40.76770 | -73.65932 | 2176 ft | 160 kts | 211° |
| 2026-05-05 01:57 | 40.75847 | -73.66647 | 2040 ft | 148 kts | 211° |
| 2026-05-05 01:58 | 40.75004 | -73.67298 | 1996 ft | 138 kts | 211° |
| 2026-05-05 01:58 | 40.74265 | -73.67879 | 1984 ft | 138 kts | 210° |
| 2026-05-05 01:58 | 40.73442 | -73.68520 | 1996 ft | 138 kts | 211° |
| 2026-05-05 01:58 | 40.72615 | -73.69170 | 1899 ft | 135 kts | 210° |
| 2026-05-05 01:59 | 40.71817 | -73.69780 | 1690 ft | 132 kts | 211° |
| 2026-05-05 01:59 | 40.71037 | -73.70395 | 1484 ft | 131 kts | 210° |
| 2026-05-05 01:59 | 40.70255 | -73.71009 | 1303 ft | 130 kts | 208° |
| 2026-05-05 01:59 | 40.69470 | -73.71621 | 1138 ft | 130 kts | 208° |
| 2026-05-05 02:00 | 40.68696 | -73.72222 | 976 ft | 130 kts | 208° |
| 2026-05-05 02:00 | 40.67922 | -73.72828 | 810 ft | 129 kts | 208° |
| 2026-05-05 02:00 | 40.67140 | -73.73422 | 669 ft | 129 kts | 207° |
| 2026-05-05 02:00 | 40.66362 | -73.74016 | 511 ft | 129 kts | 210° |
| 2026-05-05 02:01 | 40.65599 | -73.74629 | 301 ft | 129 kts | 209° |
| 2026-05-05 02:01 | 40.64836 | -73.75233 | 129 ft | 128 kts | 209° |
| 2026-05-05 02:01 | 40.64087 | -73.75835 | 24 ft | 119 kts | 210° |
| 2026-05-05 02:01 | 40.63493 | -73.76290 | 21 ft | 74 kts | 211° |
| 2026-05-05 02:02 | 40.63175 | -73.76546 | 21 ft | 46 kts | 211° |
| 2026-05-05 02:02 | 40.62960 | -73.76828 | 21 ft | 36 kts | 240° |
| 2026-05-05 02:02 | 40.62938 | -73.76982 | 21 ft | 8 kts | 298° |
| 2026-05-05 02:02 | 40.62952 | -73.77017 | 21 ft | 0 kts | 299° |
| 2026-05-05 02:03 | 40.62956 | -73.77025 | 21 ft | 1 kts | 300° |
| 2026-05-05 02:03 | 40.62963 | -73.77041 | 21 ft | 2 kts | 300° |
| 2026-05-05 02:03 | 40.62973 | -73.77065 | 21 ft | 3 kts | 300° |
| 2026-05-05 02:03 | 40.62991 | -73.77106 | 21 ft | 8 kts | 300° |
| 2026-05-05 02:04 | 40.63036 | -73.77204 | 21 ft | 16 kts | 301° |
| 2026-05-05 02:04 | 40.63098 | -73.77341 | 21 ft | 17 kts | 300° |
| 2026-05-05 02:04 | 40.63157 | -73.77473 | 21 ft | 16 kts | 302° |
| 2026-05-05 02:04 | 40.63217 | -73.77600 | 21 ft | 16 kts | 301° |
| 2026-05-05 02:05 | 40.63273 | -73.77728 | 21 ft | 16 kts | 300° |
| 2026-05-05 02:05 | 40.63348 | -73.77828 | 21 ft | 15 kts | 347° |
| 2026-05-05 02:05 | 40.63382 | -73.77806 | 21 ft | 0 kts | 43° |
| 2026-05-05 02:06 | 40.63388 | -73.77801 | 21 ft | 1 kts | 36° |
| 2026-05-05 02:06 | 40.63402 | -73.77789 | 21 ft | 3 kts | 28° |
| 2026-05-05 02:06 | 40.63449 | -73.77756 | 21 ft | 10 kts | 29° |
| 2026-05-05 02:06 | 40.63520 | -73.77753 | 21 ft | 12 kts | 318° |
| 2026-05-05 02:07 | 40.63571 | -73.77856 | 21 ft | 13 kts | 308° |
| 2026-05-05 02:07 | 40.63627 | -73.77928 | 21 ft | 4 kts | 269° |
| 2026-05-05 02:07 | 40.63625 | -73.77970 | 21 ft | 4 kts | 264° |
| 2026-05-05 02:07 | 40.63621 | -73.78014 | 21 ft | 3 kts | 262° |
| 2026-05-05 02:08 | 40.63620 | -73.78021 | 21 ft | 0 kts | 262° |